createdAt,value
2022-10-06T00:01:55.714Z,101642.25
2022-10-06T00:04:41.170Z,101633.78
2022-10-06T00:07:26.998Z,101640.72
2022-10-06T00:10:12.440Z,101643.94
2022-10-06T00:12:58.506Z,101642.91
2022-10-06T00:15:43.855Z,101650.63
2022-10-06T00:18:30.101Z,101645.34
2022-10-06T00:21:16.280Z,101649.69
2022-10-06T00:24:01.995Z,101647.16
2022-10-06T00:26:47.649Z,101646.56
2022-10-06T00:29:32.985Z,101634.59
2022-10-06T00:32:18.225Z,101625.28
2022-10-06T00:35:04.425Z,101643.56
2022-10-06T00:37:50.068Z,101639.44
2022-10-06T00:40:35.598Z,101637.72
2022-10-06T00:43:42.551Z,101652.44
2022-10-06T00:46:35.601Z,101646.66
2022-10-06T00:49:28.468Z,101624.28
2022-10-06T00:52:21.665Z,101637.34
2022-10-06T00:55:09.572Z,101649.56
2022-10-06T00:57:55.339Z,101641.00
2022-10-06T01:00:44.262Z,101645.34
2022-10-06T01:03:42.796Z,101641.84
2022-10-06T01:06:28.328Z,101634.03
2022-10-06T01:09:16.964Z,101651.41
2022-10-06T01:12:05.620Z,101641.88
2022-10-06T01:14:52.362Z,101642.72
2022-10-06T01:18:02.308Z,101654.88
2022-10-06T01:20:57.159Z,101655.75
2022-10-06T01:23:42.733Z,101657.44
2022-10-06T01:26:31.177Z,101659.06
2022-10-06T01:29:17.491Z,101662.50
2022-10-06T01:32:03.634Z,101672.94
2022-10-06T01:34:49.540Z,101670.63
2022-10-06T01:37:35.860Z,101670.53
2022-10-06T01:40:22.873Z,101671.38
2022-10-06T01:43:08.154Z,101664.53
2022-10-06T01:45:57.939Z,101672.41
2022-10-06T01:48:43.645Z,101662.97
2022-10-06T01:51:31.741Z,101670.03
2022-10-06T01:54:16.953Z,101654.47
2022-10-06T01:57:02.506Z,101651.88
2022-10-06T01:59:52.690Z,101653.59
2022-10-06T02:02:41.020Z,101647.47
2022-10-06T02:05:26.501Z,101647.50
2022-10-06T02:08:13.217Z,101643.25
2022-10-06T02:11:04.485Z,101653.75
2022-10-06T02:13:50.214Z,101647.81
2022-10-06T02:16:36.181Z,101639.22
2022-10-06T02:19:21.746Z,101641.97
2022-10-06T02:22:07.133Z,101649.84
2022-10-06T02:24:52.596Z,101636.88
2022-10-06T02:27:39.856Z,101642.06
2022-10-06T02:30:27.848Z,101629.03
2022-10-06T02:33:13.214Z,101640.41
2022-10-06T02:35:59.129Z,101642.94
2022-10-06T02:38:46.777Z,101635.03
2022-10-06T02:41:32.852Z,101641.16
2022-10-06T02:44:18.422Z,101641.22
2022-10-06T02:47:04.899Z,101629.16
2022-10-06T02:49:51.115Z,101648.16
2022-10-06T02:52:38.610Z,101642.09
2022-10-06T02:55:24.380Z,101632.63
2022-10-06T02:58:09.587Z,101638.81
2022-10-06T03:00:54.938Z,101630.94
2022-10-06T03:03:41.053Z,101636.91
2022-10-06T03:06:29.182Z,101638.56
2022-10-06T03:09:23.378Z,101646.34
2022-10-06T03:12:10.113Z,101652.50
2022-10-06T03:15:01.490Z,101651.75
2022-10-06T03:17:50.376Z,101643.91
2022-10-06T03:20:35.858Z,101639.59
2022-10-06T03:23:21.895Z,101635.19
2022-10-06T03:26:08.907Z,101649.03
2022-10-06T03:28:55.553Z,101641.28
2022-10-06T03:31:43.399Z,101646.47
2022-10-06T03:34:30.525Z,101637.88
2022-10-06T03:37:19.221Z,101646.53
2022-10-06T03:40:05.314Z,101643.16
2022-10-06T03:42:50.638Z,101643.22
2022-10-06T03:45:36.021Z,101642.41
2022-10-06T03:48:21.350Z,101631.19
2022-10-06T03:51:11.634Z,101646.88
2022-10-06T03:53:59.129Z,101648.69
2022-10-06T03:56:46.188Z,101652.25
2022-10-06T03:59:34.403Z,101659.25
2022-10-06T04:02:22.035Z,101647.16
2022-10-06T04:05:08.447Z,101649.75
2022-10-06T04:07:53.707Z,101650.66
2022-10-06T04:10:39.017Z,101648.81
2022-10-06T04:13:24.844Z,101660.97
2022-10-06T04:16:18.326Z,101652.34
2022-10-06T04:19:06.501Z,101666.41
2022-10-06T04:21:52.264Z,101670.88
2022-10-06T04:24:40.980Z,101659.72
2022-10-06T04:27:29.200Z,101667.53
2022-10-06T04:30:21.502Z,101672.66
2022-10-06T04:33:07.479Z,101676.88
2022-10-06T04:36:04.658Z,101668.97
2022-10-06T04:39:02.786Z,101688.09
2022-10-06T04:41:50.184Z,101679.59
2022-10-06T04:44:40.532Z,101691.00
2022-10-06T04:47:25.893Z,101680.56
2022-10-06T04:50:11.367Z,101678.88
2022-10-06T04:53:04.949Z,101674.59
2022-10-06T04:56:11.123Z,101678.16
2022-10-06T04:58:58.023Z,101685.19
2022-10-06T05:01:44.029Z,101683.34
2022-10-06T05:04:32.042Z,101691.97
2022-10-06T05:07:17.511Z,101702.22
2022-10-06T05:10:03.440Z,101690.78
2022-10-06T05:12:50.253Z,101708.09
2022-10-06T05:15:35.940Z,101713.28
2022-10-06T05:18:21.890Z,101715.75
2022-10-06T05:21:11.332Z,101715.69
2022-10-06T05:23:57.570Z,101720.88
2022-10-06T05:26:43.271Z,101732.13
2022-10-06T05:29:32.204Z,101726.97
2022-10-06T05:32:17.481Z,101741.81
2022-10-06T05:35:03.006Z,101738.41
2022-10-06T05:37:48.513Z,101738.41
2022-10-06T05:40:34.679Z,101736.69
2022-10-06T05:43:20.055Z,101759.47
2022-10-06T05:46:09.018Z,101754.44
2022-10-06T05:49:00.371Z,101759.75
2022-10-06T05:51:49.161Z,101762.47
2022-10-06T05:54:45.833Z,101766.94
2022-10-06T05:57:31.466Z,101761.69
2022-10-06T06:00:17.826Z,101768.59
2022-10-06T06:03:09.069Z,101769.34
2022-10-06T06:05:54.959Z,101777.09
2022-10-06T06:08:40.531Z,101781.31
2022-10-06T06:11:27.973Z,101785.66
2022-10-06T06:14:17.880Z,101785.56
2022-10-06T06:17:05.509Z,101793.25
2022-10-06T06:19:51.331Z,101795.72
2022-10-06T06:22:36.746Z,101804.22
2022-10-06T06:25:23.960Z,101801.38
2022-10-06T06:28:09.369Z,101803.97
2022-10-06T06:31:03.000Z,101812.81
2022-10-06T06:33:52.065Z,101811.09
2022-10-06T06:36:45.091Z,101805.84
2022-10-06T06:39:34.049Z,101813.63
2022-10-06T06:42:19.347Z,101821.50
2022-10-06T06:45:09.333Z,101815.44
2022-10-06T06:47:59.285Z,101805.88
2022-10-06T06:50:44.662Z,101815.25
2022-10-06T06:53:31.824Z,101823.00
2022-10-06T06:56:21.504Z,101824.69
2022-10-06T06:59:09.195Z,101821.25
2022-10-06T07:01:54.786Z,101831.84
2022-10-06T07:04:41.645Z,101825.81
2022-10-06T07:07:29.143Z,101826.81
2022-10-06T07:10:14.649Z,101831.31
2022-10-06T07:13:00.484Z,101830.69
2022-10-06T07:16:07.448Z,101832.56
2022-10-06T07:19:11.597Z,101840.56
2022-10-06T07:22:17.072Z,101838.13
2022-10-06T07:25:12.986Z,101835.63
2022-10-06T07:28:02.675Z,101833.16
2022-10-06T07:30:52.967Z,101834.97
2022-10-06T07:33:40.976Z,101838.59
2022-10-06T07:36:27.560Z,101831.78
2022-10-06T07:39:13.039Z,101837.09
2022-10-06T07:41:58.496Z,101842.47
2022-10-06T07:45:05.630Z,101849.59
2022-10-06T07:47:58.828Z,101842.78
2022-10-06T07:50:47.958Z,101843.78
2022-10-06T07:53:37.439Z,101837.78
2022-10-06T07:56:37.633Z,101847.47
2022-10-06T07:59:23.171Z,101844.03
2022-10-06T08:02:08.710Z,101851.91
2022-10-06T08:04:54.844Z,101834.56
2022-10-06T08:07:41.164Z,101845.97
2022-10-06T08:10:26.945Z,101866.97
2022-10-06T08:13:12.571Z,101862.63
2022-10-06T08:16:08.004Z,101866.13
2022-10-06T08:18:54.923Z,101861.78
2022-10-06T08:21:40.798Z,101859.06
2022-10-06T08:24:30.537Z,101860.78
2022-10-06T08:27:19.308Z,101849.38
2022-10-06T08:30:07.327Z,101854.56
2022-10-06T08:32:52.939Z,101856.31
2022-10-06T08:35:39.669Z,101864.09
2022-10-06T08:38:25.111Z,101864.97
2022-10-06T08:41:21.240Z,101858.78
2022-10-06T08:44:16.147Z,101861.38
2022-10-06T08:47:05.786Z,101860.53
2022-10-06T08:49:55.158Z,101850.09
2022-10-06T08:53:21.865Z,101859.72
2022-10-06T08:56:20.739Z,101861.53
2022-10-06T08:59:08.338Z,101855.41
2022-10-06T09:01:54.917Z,101861.56
2022-10-06T09:04:40.814Z,101860.75
2022-10-06T09:07:42.212Z,101867.06
2022-10-06T09:10:50.470Z,101857.66
2022-10-06T09:14:05.188Z,101848.28
2022-10-06T09:16:57.403Z,101841.41
2022-10-06T09:19:45.692Z,101840.50
2022-10-06T09:22:32.950Z,101841.41
2022-10-06T09:25:22.171Z,101847.53
2022-10-06T09:28:15.927Z,101866.78
2022-10-06T09:31:03.552Z,101851.94
2022-10-06T09:33:53.331Z,101850.28
2022-10-06T09:37:01.274Z,101853.00
2022-10-06T09:39:51.156Z,101848.78
2022-10-06T09:42:36.649Z,101859.31
2022-10-06T09:45:25.601Z,101860.22
2022-10-06T09:48:20.983Z,101856.72
2022-10-06T09:51:13.426Z,101853.25
2022-10-06T09:54:17.312Z,101867.28
2022-10-06T09:57:28.925Z,101868.13
2022-10-06T10:00:36.087Z,101866.41
2022-10-06T10:03:22.805Z,101869.06
2022-10-06T10:06:09.179Z,101869.06
2022-10-06T10:09:23.937Z,101871.69
2022-10-06T10:12:24.584Z,101871.69
2022-10-06T10:15:10.481Z,101871.69
2022-10-06T10:17:59.186Z,101870.78
2022-10-06T10:20:52.839Z,101866.41
2022-10-06T10:23:42.735Z,101848.91
2022-10-06T10:27:13.485Z,101847.94
2022-10-06T10:30:14.866Z,101843.50
2022-10-06T10:33:18.882Z,101848.69
2022-10-06T10:36:06.824Z,101831.06
2022-10-06T10:38:54.431Z,101830.16
2022-10-06T10:41:52.414Z,101829.34
2022-10-06T10:44:47.634Z,101832.03
2022-10-06T10:47:43.652Z,101829.38
2022-10-06T10:50:43.271Z,101811.88
2022-10-06T10:53:59.839Z,101825.81
2022-10-06T10:56:49.290Z,101823.16
2022-10-06T10:59:48.135Z,101819.66
2022-10-06T11:02:35.796Z,101824.00
2022-10-06T11:05:33.846Z,101806.47
2022-10-06T11:08:45.648Z,101805.47
2022-10-06T11:11:51.962Z,101814.19
2022-10-06T11:15:03.596Z,101800.97
2022-10-06T11:17:50.936Z,101800.97
2022-10-06T11:21:06.187Z,101809.66
2022-10-06T11:24:03.228Z,101799.06
2022-10-06T11:27:26.782Z,101800.78
2022-10-06T11:30:18.409Z,101799.91
2022-10-06T11:33:13.779Z,101782.38
2022-10-06T11:36:02.398Z,101798.09
2022-10-06T11:38:56.734Z,101790.06
2022-10-06T11:41:49.523Z,101789.97
2022-10-06T11:44:44.535Z,101789.09
2022-10-06T11:48:00.597Z,101783.13
2022-10-06T11:50:49.300Z,101785.84
2022-10-06T11:53:35.181Z,101787.56
2022-10-06T11:56:20.867Z,101783.19
2022-10-06T11:59:27.502Z,101783.03
2022-10-06T12:02:33.213Z,101767.19
2022-10-06T12:08:39.467Z,101765.28
2022-10-06T12:11:42.470Z,101760.91
2022-10-06T12:16:32.534Z,101765.31
2022-10-06T12:18:07.646Z,101758.28
2022-10-06T12:21:08.316Z,101748.53
2022-10-06T12:24:06.394Z,101757.88
2022-10-06T12:27:34.940Z,101751.56
2022-10-06T12:30:33.864Z,101751.75
2022-10-06T12:33:26.589Z,101749.16
2022-10-06T12:36:28.398Z,101763.09
2022-10-06T12:39:24.657Z,101758.59
2022-10-06T12:42:20.756Z,101745.44
2022-10-06T12:45:16.958Z,101742.03
2022-10-06T12:48:06.853Z,101733.31
2022-10-06T12:51:03.059Z,101738.63
2022-10-06T12:54:03.796Z,101737.72
2022-10-06T12:57:02.821Z,101728.88
2022-10-06T12:59:49.607Z,101729.69
2022-10-06T13:02:35.072Z,101733.81
2022-10-06T13:05:20.672Z,101717.03
2022-10-06T13:08:20.973Z,101725.81
2022-10-06T13:11:12.798Z,101710.59
2022-10-06T13:14:08.051Z,101713.91
2022-10-06T13:16:53.368Z,101710.97
2022-10-06T13:19:44.278Z,101693.91
2022-10-06T13:22:29.778Z,101703.38
2022-10-06T13:25:16.533Z,101704.50
2022-10-06T13:28:02.607Z,101701.94
2022-10-06T13:30:57.549Z,101693.19
2022-10-06T13:33:45.353Z,101700.31
2022-10-06T13:36:34.656Z,101699.53
2022-10-06T13:39:22.652Z,101697.13
2022-10-06T13:42:17.726Z,101687.63
2022-10-06T13:45:04.054Z,101703.66
2022-10-06T13:48:06.308Z,101701.19
2022-10-06T13:50:55.632Z,101692.53
2022-10-06T13:53:46.181Z,101689.00
2022-10-06T13:56:38.937Z,101702.19
2022-10-06T13:59:37.232Z,101710.44
2022-10-06T14:02:32.435Z,101729.25
2022-10-06T14:05:29.830Z,101736.59
2022-10-06T14:08:27.821Z,101730.69
2022-10-06T14:11:13.141Z,101758.72
2022-10-06T14:14:02.468Z,101756.13
2022-10-06T14:16:53.412Z,101763.13
2022-10-06T14:19:42.826Z,101760.50
2022-10-06T14:22:34.519Z,101755.13
2022-10-06T14:25:19.942Z,101753.22
2022-10-06T14:28:05.434Z,101741.81
2022-10-06T14:30:50.972Z,101728.63
2022-10-06T14:33:36.391Z,101720.72
2022-10-06T14:36:30.972Z,101730.31
2022-10-06T14:39:16.677Z,101713.53
2022-10-06T14:42:01.953Z,101727.16
2022-10-06T14:44:48.288Z,101691.69
2022-10-06T14:47:33.719Z,101677.25
2022-10-06T14:50:19.182Z,101667.38
2022-10-06T14:53:05.031Z,101665.50
2022-10-06T14:55:50.331Z,101653.31
2022-10-06T14:58:42.562Z,101648.06
2022-10-06T15:01:29.403Z,101644.31
2022-10-06T15:04:20.519Z,101650.44
2022-10-06T15:07:24.429Z,101639.16
2022-10-06T15:10:10.011Z,101638.59
2022-10-06T15:12:57.063Z,101640.47
2022-10-06T15:15:42.877Z,101637.94
2022-10-06T15:18:28.442Z,101624.13
2022-10-06T15:21:13.821Z,101632.94
2022-10-06T15:24:01.573Z,101631.81
2022-10-06T15:27:05.855Z,101633.31
2022-10-06T15:29:51.441Z,101618.50
2022-10-06T15:32:37.222Z,101622.59
2022-10-06T15:35:22.594Z,101619.13
2022-10-06T15:38:08.110Z,101614.78
2022-10-06T15:41:02.636Z,101612.34
2022-10-06T15:43:55.226Z,101604.53
2022-10-06T15:46:45.991Z,101604.63
2022-10-06T15:49:33.171Z,101601.19
2022-10-06T15:52:19.031Z,101587.44
2022-10-06T15:55:05.283Z,101586.69
2022-10-06T15:57:53.008Z,101587.78
2022-10-06T16:00:38.167Z,101597.56
2022-10-06T16:03:41.068Z,101593.22
2022-10-06T16:06:41.654Z,101594.13
2022-10-06T16:09:30.604Z,101569.59
2022-10-06T16:12:19.266Z,101586.28
2022-10-06T16:15:05.079Z,101587.16
2022-10-06T16:17:50.532Z,101588.94
2022-10-06T16:20:35.934Z,101570.38
2022-10-06T16:23:24.359Z,101561.34
2022-10-06T16:26:09.746Z,101557.03
2022-10-06T16:28:55.295Z,101552.88
2022-10-06T16:31:41.237Z,101555.72
2022-10-06T16:34:27.110Z,101567.22
2022-10-06T16:37:12.724Z,101555.94
2022-10-06T16:39:58.488Z,101559.47
2022-10-06T16:42:45.806Z,101552.44
2022-10-06T16:45:31.582Z,101553.34
2022-10-06T16:48:16.896Z,101559.50
2022-10-06T16:51:11.673Z,101553.44
2022-10-06T16:53:59.611Z,101574.59
2022-10-06T16:56:48.349Z,101576.41
2022-10-06T16:59:33.751Z,101575.59
2022-10-06T17:02:19.366Z,101578.28
2022-10-06T17:05:05.641Z,101571.38
2022-10-06T17:07:53.488Z,101577.56
2022-10-06T17:10:41.357Z,101574.97
2022-10-06T17:13:27.215Z,101576.75
2022-10-06T17:16:16.106Z,101567.13
2022-10-06T17:19:02.474Z,101561.88
2022-10-06T17:21:51.604Z,101557.47
2022-10-06T17:24:39.723Z,101567.09
2022-10-06T17:27:28.673Z,101565.34
2022-10-06T17:30:15.572Z,101563.63
2022-10-06T17:33:02.251Z,101569.78
2022-10-06T17:35:48.679Z,101569.78
2022-10-06T17:38:36.589Z,101564.56
2022-10-06T17:41:29.621Z,101554.94
2022-10-06T17:44:21.385Z,101575.09
2022-10-06T17:47:07.571Z,101567.28
2022-10-06T17:49:52.891Z,101573.38
2022-10-06T17:52:38.947Z,101565.50
2022-10-06T17:55:28.042Z,101560.25
2022-10-06T17:58:17.908Z,101557.63
2022-10-06T18:01:07.404Z,101559.38
2022-10-06T18:03:55.388Z,101562.84
2022-10-06T18:06:42.060Z,101554.97
2022-10-06T18:09:27.476Z,101554.97
2022-10-06T18:12:13.032Z,101549.72
2022-10-06T18:14:58.395Z,101551.50
2022-10-06T18:17:43.922Z,101562.88
2022-10-06T18:20:31.653Z,101561.09
2022-10-06T18:23:17.151Z,101562.00
2022-10-06T18:26:06.015Z,101548.91
2022-10-06T18:28:51.388Z,101552.41
2022-10-06T18:31:38.161Z,101549.81
2022-10-06T18:37:29.138Z,101546.34
2022-10-06T18:40:14.978Z,101549.84
2022-10-06T18:43:00.755Z,101556.81
2022-10-06T18:46:04.709Z,101542.84
2022-10-06T18:48:58.386Z,101553.31
2022-10-06T18:51:52.597Z,101552.44
2022-10-06T18:54:44.544Z,101548.97
2022-10-06T18:57:29.852Z,101550.72
2022-10-06T19:00:15.499Z,101559.44
2022-10-06T19:03:01.245Z,101553.31
2022-10-06T19:05:53.052Z,101550.72
2022-10-06T19:08:38.567Z,101552.47
2022-10-06T19:11:42.147Z,101556.81
2022-10-06T19:14:35.368Z,101548.97
2022-10-06T19:17:22.960Z,101543.72
2022-10-06T19:20:10.952Z,101556.81
2022-10-06T19:22:56.395Z,101562.06
2022-10-06T19:25:41.705Z,101557.69
2022-10-06T19:28:30.827Z,101544.56
2022-10-06T19:31:20.071Z,101547.16
2022-10-06T19:34:08.579Z,101540.16
2022-10-06T19:36:54.875Z,101536.69
2022-10-06T19:39:43.434Z,101541.91
2022-10-06T19:42:47.369Z,101541.91
2022-10-06T19:45:32.987Z,101536.69
2022-10-06T19:48:20.306Z,101534.06
2022-10-06T19:51:14.217Z,101527.06
2022-10-06T19:53:59.596Z,101530.53
2022-10-06T19:56:46.477Z,101536.63
2022-10-06T19:59:32.155Z,101528.78
2022-10-06T20:02:17.674Z,101531.44
2022-10-06T20:05:03.084Z,101523.59
2022-10-06T20:07:48.660Z,101518.34
2022-10-06T20:10:34.867Z,101518.34
2022-10-06T20:13:20.696Z,101520.97
2022-10-06T20:16:10.338Z,101521.84
2022-10-06T20:18:55.641Z,101516.63
2022-10-06T20:21:41.589Z,101521.84
2022-10-06T20:24:27.947Z,101527.06
2022-10-06T20:27:13.929Z,101524.44
2022-10-06T20:29:59.463Z,101522.69
2022-10-06T20:32:44.862Z,101520.03
2022-10-06T20:35:30.479Z,101520.03
2022-10-06T20:38:16.212Z,101523.53
2022-10-06T20:41:01.816Z,101520.00
2022-10-06T20:43:47.491Z,101516.50
2022-10-06T20:46:35.593Z,101525.25
2022-10-06T20:49:22.096Z,101525.25
2022-10-06T20:52:10.153Z,101515.66
2022-10-06T20:54:55.938Z,101519.16
2022-10-06T20:57:42.618Z,101513.94
2022-10-06T21:00:28.003Z,101506.09
2022-10-06T21:03:14.152Z,101506.13
2022-10-06T21:06:00.183Z,101500.88
2022-10-06T21:08:46.681Z,101506.97
2022-10-06T21:11:32.400Z,101512.22
2022-10-06T21:14:18.442Z,101508.69
2022-10-06T21:17:04.407Z,101505.22
2022-10-06T21:19:50.427Z,101509.59
2022-10-06T21:22:35.938Z,101502.59
2022-10-06T21:25:21.400Z,101504.34
2022-10-06T21:28:07.191Z,101499.97
2022-10-06T21:30:55.487Z,101506.06
2022-10-06T21:33:42.734Z,101505.22
2022-10-06T21:36:31.345Z,101498.22
2022-10-06T21:39:16.919Z,101498.22
2022-10-06T21:42:02.578Z,101505.19
2022-10-06T21:44:48.081Z,101492.09
2022-10-06T21:47:34.709Z,101486.84
2022-10-06T21:50:20.123Z,101484.22
2022-10-06T21:53:06.046Z,101493.81
2022-10-06T21:55:53.817Z,101478.09
2022-10-06T21:58:39.187Z,101466.75
2022-10-06T22:01:28.059Z,101469.38
2022-10-06T22:04:15.016Z,101472.00
2022-10-06T22:07:00.436Z,101454.56
2022-10-06T22:09:45.988Z,101459.81
2022-10-06T22:12:31.422Z,101456.28
2022-10-06T22:15:17.053Z,101441.50
2022-10-06T22:18:02.702Z,101437.13
2022-10-06T22:20:48.116Z,101449.31
2022-10-06T22:23:33.626Z,101444.06
2022-10-06T22:26:19.272Z,101439.69
2022-10-06T22:29:07.170Z,101426.63
2022-10-06T22:31:52.869Z,101435.34
2022-10-06T22:34:38.440Z,101425.72
2022-10-06T22:37:24.147Z,101433.56
2022-10-06T22:40:10.414Z,101416.16
2022-10-06T22:42:56.116Z,101421.38
2022-10-06T22:45:41.584Z,101410.91
2022-10-06T22:48:27.304Z,101409.19
2022-10-06T22:51:12.971Z,101405.69
2022-10-06T22:54:00.002Z,101396.13
2022-10-06T22:56:46.041Z,101401.34
2022-10-06T22:59:31.406Z,101389.13
2022-10-06T23:02:16.741Z,101386.47
2022-10-06T23:05:02.098Z,101380.38
2022-10-06T23:07:47.715Z,101373.44
2022-10-06T23:10:36.881Z,101372.50
2022-10-06T23:13:22.513Z,101363.78
2022-10-06T23:16:10.395Z,101355.94
2022-10-06T23:18:55.914Z,101356.81
2022-10-06T23:21:41.397Z,101351.56
2022-10-06T23:24:26.937Z,101365.50
2022-10-06T23:27:14.260Z,101356.81
2022-10-06T23:30:00.595Z,101357.66
2022-10-06T23:32:46.115Z,101355.06
2022-10-06T23:35:31.610Z,101355.94
2022-10-06T23:38:17.015Z,101345.47
2022-10-06T23:41:02.582Z,101347.19
2022-10-06T23:43:48.253Z,101348.09
2022-10-06T23:46:33.821Z,101349.84
2022-10-06T23:49:19.509Z,101352.50
2022-10-06T23:52:05.079Z,101335.94
2022-10-06T23:54:50.334Z,101332.47
2022-10-06T23:57:35.692Z,101319.38
